sensor_id;sensor_type;location;lat;lon;timestamp;pressure;altitude;pressure_sealevel;temperature;humidity
46598;BME280;32318;48.858;8.252;2023-03-12T00:06:33;99970.00;;;1.22;69.94
46598;BME280;32318;48.858;8.252;2023-03-12T00:14:33;99972.63;;;1.22;68.76
46598;BME280;32318;48.858;8.252;2023-03-12T00:22:33;99965.81;;;1.19;70.15
46598;BME280;32318;48.858;8.252;2023-03-12T00:30:33;99968.44;;;1.19;70.01
46598;BME280;32318;48.858;8.252;2023-03-12T00:38:34;99963.31;;;1.18;69.26
46598;BME280;32318;48.858;8.252;2023-03-12T00:46:34;99969.31;;;1.20;70.57
46598;BME280;32318;48.858;8.252;2023-03-12T00:54:34;99977.69;;;1.25;70.91
46598;BME280;32318;48.858;8.252;2023-03-12T01:02:36;99974.84;;;1.28;71.34
46598;BME280;32318;48.858;8.252;2023-03-12T01:10:40;99983.44;;;1.30;71.50
46598;BME280;32318;48.858;8.252;2023-03-12T01:18:41;99993.75;;;1.33;71.59
46598;BME280;32318;48.858;8.252;2023-03-12T01:26:41;99982.50;;;1.31;70.82
46598;BME280;32318;48.858;8.252;2023-03-12T01:34:42;99977.56;;;1.27;71.71
46598;BME280;32318;48.858;8.252;2023-03-12T01:42:50;99984.84;;;1.23;72.20
46598;BME280;32318;48.858;8.252;2023-03-12T01:50:51;99981.50;;;1.21;72.05
46598;BME280;32318;48.858;8.252;2023-03-12T01:58:53;99950.03;;;1.19;71.63
46598;BME280;32318;48.858;8.252;2023-03-12T02:15:01;99950.38;;;1.15;71.17
46598;BME280;32318;48.858;8.252;2023-03-12T02:23:09;99936.69;;;1.22;70.76
46598;BME280;32318;48.858;8.252;2023-03-12T02:31:15;99935.50;;;1.27;71.19
46598;BME280;32318;48.858;8.252;2023-03-12T02:39:17;99920.22;;;1.32;69.84
46598;BME280;32318;48.858;8.252;2023-03-12T02:47:18;99916.47;;;1.23;68.20
46598;BME280;32318;48.858;8.252;2023-03-12T02:55:19;99931.97;;;1.15;70.39
46598;BME280;32318;48.858;8.252;2023-03-12T03:03:19;99944.78;;;1.19;71.06
46598;BME280;32318;48.858;8.252;2023-03-12T03:11:19;99949.22;;;1.19;71.57
46598;BME280;32318;48.858;8.252;2023-03-12T03:19:23;99920.56;;;1.27;72.10
46598;BME280;32318;48.858;8.252;2023-03-12T03:27:24;99922.00;;;1.31;72.66
46598;BME280;32318;48.858;8.252;2023-03-12T03:35:24;99917.94;;;1.27;71.84
46598;BME280;32318;48.858;8.252;2023-03-12T03:43:24;99912.41;;;1.19;69.34
46598;BME280;32318;48.858;8.252;2023-03-12T03:51:25;99899.13;;;1.20;72.21
46598;BME280;32318;48.858;8.252;2023-03-12T03:59:25;99888.53;;;1.33;69.25
46598;BME280;32318;48.858;8.252;2023-03-12T04:07:26;99898.84;;;1.36;73.31
46598;BME280;32318;48.858;8.252;2023-03-12T04:15:27;99889.31;;;1.47;73.18
46598;BME280;32318;48.858;8.252;2023-03-12T04:23:27;99890.03;;;1.49;72.56
46598;BME280;32318;48.858;8.252;2023-03-12T04:31:27;99898.03;;;1.47;73.18
46598;BME280;32318;48.858;8.252;2023-03-12T04:39:28;99906.66;;;1.49;70.20
46598;BME280;32318;48.858;8.252;2023-03-12T04:47:30;99912.28;;;1.45;70.69
46598;BME280;32318;48.858;8.252;2023-03-12T04:55:30;99916.53;;;1.34;71.17
46598;BME280;32318;48.858;8.252;2023-03-12T05:03:30;99921.69;;;1.12;72.85
46598;BME280;32318;48.858;8.252;2023-03-12T05:11:31;99909.91;;;1.04;73.60
46598;BME280;32318;48.858;8.252;2023-03-12T05:19:31;99912.69;;;0.90;76.03
46598;BME280;32318;48.858;8.252;2023-03-12T05:27:31;99906.34;;;1.05;75.12
46598;BME280;32318;48.858;8.252;2023-03-12T05:35:32;99895.81;;;1.05;75.88
46598;BME280;32318;48.858;8.252;2023-03-12T05:43:32;99884.28;;;1.19;77.85
46598;BME280;32318;48.858;8.252;2023-03-12T05:51:33;99895.69;;;1.31;79.15
46598;BME280;32318;48.858;8.252;2023-03-12T05:59:34;99876.38;;;1.44;78.38
46598;BME280;32318;48.858;8.252;2023-03-12T06:07:34;99870.56;;;1.51;76.92
46598;BME280;32318;48.858;8.252;2023-03-12T06:15:34;99881.69;;;1.55;79.46
46598;BME280;32318;48.858;8.252;2023-03-12T06:23:35;99885.88;;;1.58;77.64
46598;BME280;32318;48.858;8.252;2023-03-12T06:31:35;99881.84;;;1.65;79.43
46598;BME280;32318;48.858;8.252;2023-03-12T06:39:36;99890.81;;;1.73;79.31
46598;BME280;32318;48.858;8.252;2023-03-12T06:47:37;99885.56;;;1.73;77.79
46598;BME280;32318;48.858;8.252;2023-03-12T06:55:37;99886.88;;;1.79;78.35
46598;BME280;32318;48.858;8.252;2023-03-12T07:03:38;99886.53;;;1.84;76.27
46598;BME280;32318;48.858;8.252;2023-03-12T07:11:38;99892.06;;;1.81;75.21
46598;BME280;32318;48.858;8.252;2023-03-12T07:19:38;99904.00;;;1.85;78.59
46598;BME280;32318;48.858;8.252;2023-03-12T07:27:38;99909.09;;;1.99;79.69
46598;BME280;32318;48.858;8.252;2023-03-12T07:35:39;99912.56;;;2.11;78.66
46598;BME280;32318;48.858;8.252;2023-03-12T07:43:39;99915.34;;;2.21;80.75
46598;BME280;32318;48.858;8.252;2023-03-12T07:51:39;99919.78;;;2.21;78.57
46598;BME280;32318;48.858;8.252;2023-03-12T07:59:39;99910.63;;;2.13;80.04
46598;BME280;32318;48.858;8.252;2023-03-12T08:07:40;99935.91;;;2.27;77.95
46598;BME280;32318;48.858;8.252;2023-03-12T08:15:43;99940.59;;;2.24;79.02
46598;BME280;32318;48.858;8.252;2023-03-12T08:23:43;99960.59;;;2.26;79.84
46598;BME280;32318;48.858;8.252;2023-03-12T08:31:44;99952.22;;;2.21;80.82
46598;BME280;32318;48.858;8.252;2023-03-12T08:39:44;99956.16;;;2.27;79.51
46598;BME280;32318;48.858;8.252;2023-03-12T08:47:44;99970.91;;;2.29;83.66
46598;BME280;32318;48.858;8.252;2023-03-12T08:55:45;99964.78;;;2.40;84.80
46598;BME280;32318;48.858;8.252;2023-03-12T09:03:45;99983.63;;;2.47;nan
46598;BME280;32318;48.858;8.252;2023-03-12T09:11:48;99974.66;;;2.61;86.35
46598;BME280;32318;48.858;8.252;2023-03-12T09:19:48;99967.69;;;2.82;87.75
46598;BME280;32318;48.858;8.252;2023-03-12T09:27:49;99981.94;;;3.03;87.10
46598;BME280;32318;48.858;8.252;2023-03-12T09:35:55;99974.00;;;3.14;87.14
46598;BME280;32318;48.858;8.252;2023-03-12T09:52:29;99971.31;;;3.69;88.03
46598;BME280;32318;48.858;8.252;2023-03-12T10:00:34;99983.09;;;3.98;90.24
46598;BME280;32318;48.858;8.252;2023-03-12T10:08:48;99985.94;;;4.27;92.11
46598;BME280;32318;48.858;8.252;2023-03-12T10:25:38;100005.81;;;5.14;93.33
46598;BME280;32318;48.858;8.252;2023-03-12T10:33:46;100005.06;;;5.82;94.69
46598;BME280;32318;48.858;8.252;2023-03-12T10:41:49;99998.09;;;6.40;95.03
46598;BME280;32318;48.858;8.252;2023-03-12T10:49:49;99984.00;;;6.78;90.27
46598;BME280;32318;48.858;8.252;2023-03-12T10:57:51;99995.81;;;7.21;88.11
46598;BME280;32318;48.858;8.252;2023-03-12T11:05:54;99986.63;;;7.61;90.38
46598;BME280;32318;48.858;8.252;2023-03-12T11:22:07;99990.06;;;8.60;88.38
46598;BME280;32318;48.858;8.252;2023-03-12T11:30:14;99993.72;;;8.94;85.51
46598;BME280;32318;48.858;8.252;2023-03-12T11:38:20;99998.00;;;9.21;83.62
46598;BME280;32318;48.858;8.252;2023-03-12T11:46:58;99983.41;;;9.42;84.74
46598;BME280;32318;48.858;8.252;2023-03-12T12:36:18;99974.44;;;10.50;82.44
46598;BME280;32318;48.858;8.252;2023-03-12T12:44:25;99958.41;;;10.59;79.70
46598;BME280;32318;48.858;8.252;2023-03-12T12:52:27;99954.09;;;10.49;79.58
46598;BME280;32318;48.858;8.252;2023-03-12T13:00:53;99962.44;;;10.46;79.41
46598;BME280;32318;48.858;8.252;2023-03-12T13:09:00;99960.25;;;10.58;79.41
46598;BME280;32318;48.858;8.252;2023-03-12T13:17:18;99947.34;;;10.70;76.42
46598;BME280;32318;48.858;8.252;2023-03-12T13:33:38;99943.31;;;10.82;76.06
46598;BME280;32318;48.858;8.252;2023-03-12T13:41:47;99914.59;;;10.85;75.83
46598;BME280;32318;48.858;8.252;2023-03-12T13:50:03;99917.22;;;10.93;74.67
46598;BME280;32318;48.858;8.252;2023-03-12T13:58:16;99906.00;;;11.29;71.97
46598;BME280;32318;48.858;8.252;2023-03-12T14:06:22;99923.91;;;11.52;70.70
46598;BME280;32318;48.858;8.252;2023-03-12T14:14:45;99900.41;;;11.62;70.23
46598;BME280;32318;48.858;8.252;2023-03-12T14:22:54;99911.88;;;11.71;68.37
46598;BME280;32318;48.858;8.252;2023-03-12T14:39:10;99903.06;;;11.85;68.07
46598;BME280;32318;48.858;8.252;2023-03-12T14:47:16;99915.63;;;11.85;67.70
46598;BME280;32318;48.858;8.252;2023-03-12T14:55:22;99908.41;;;11.85;66.31
46598;BME280;32318;48.858;8.252;2023-03-12T15:03:23;99915.19;;;11.96;66.79
46598;BME280;32318;48.858;8.252;2023-03-12T15:11:26;99898.47;;;11.94;64.44
46598;BME280;32318;48.858;8.252;2023-03-12T15:19:31;99901.84;;;11.88;64.31
46598;BME280;32318;48.858;8.252;2023-03-12T15:27:32;99892.75;;;11.82;66.23
46598;BME280;32318;48.858;8.252;2023-03-12T15:35:34;99890.59;;;11.77;63.92
46598;BME280;32318;48.858;8.252;2023-03-12T15:43:35;99894.75;;;11.80;64.72
46598;BME280;32318;48.858;8.252;2023-03-12T15:51:36;99883.22;;;11.80;65.19
46598;BME280;32318;48.858;8.252;2023-03-12T15:59:39;99895.50;;;11.74;64.89
46598;BME280;32318;48.858;8.252;2023-03-12T16:07:39;99897.72;;;11.62;64.41
46598;BME280;32318;48.858;8.252;2023-03-12T16:15:40;99899.78;;;11.60;64.72
46598;BME280;32318;48.858;8.252;2023-03-12T16:23:41;99886.09;;;11.55;65.51
46598;BME280;32318;48.858;8.252;2023-03-12T16:31:41;99854.56;;;11.50;64.48
46598;BME280;32318;48.858;8.252;2023-03-12T16:39:42;99865.78;;;11.45;64.06
46598;BME280;32318;48.858;8.252;2023-03-12T16:47:47;99854.88;;;11.32;64.38
46598;BME280;32318;48.858;8.252;2023-03-12T16:55:56;99854.94;;;11.24;65.06
46598;BME280;32318;48.858;8.252;2023-03-12T17:03:58;99870.03;;;11.17;64.56
46598;BME280;32318;48.858;8.252;2023-03-12T17:11:59;99877.41;;;11.06;65.23
46598;BME280;32318;48.858;8.252;2023-03-12T17:20:00;99886.81;;;10.94;64.34
46598;BME280;32318;48.858;8.252;2023-03-12T17:28:00;99880.34;;;10.88;65.15
46598;BME280;32318;48.858;8.252;2023-03-12T17:36:04;99904.59;;;10.78;65.05
46598;BME280;32318;48.858;8.252;2023-03-12T17:44:05;99891.97;;;10.72;65.53
46598;BME280;32318;48.858;8.252;2023-03-12T17:52:06;99892.78;;;10.73;65.21
46598;BME280;32318;48.858;8.252;2023-03-12T18:00:07;99888.13;;;10.66;65.33
46598;BME280;32318;48.858;8.252;2023-03-12T18:08:11;99909.78;;;10.72;65.20
46598;BME280;32318;48.858;8.252;2023-03-12T18:16:12;99909.31;;;10.68;64.17
46598;BME280;32318;48.858;8.252;2023-03-12T18:24:12;99916.50;;;10.67;65.60
46598;BME280;32318;48.858;8.252;2023-03-12T18:32:12;99925.38;;;10.60;65.44
46598;BME280;32318;48.858;8.252;2023-03-12T18:40:13;99915.19;;;10.55;65.94
46598;BME280;32318;48.858;8.252;2023-03-12T18:48:13;99910.38;;;10.50;65.62
46598;BME280;32318;48.858;8.252;2023-03-12T18:56:14;99925.75;;;10.48;66.36
46598;BME280;32318;48.858;8.252;2023-03-12T19:04:17;99940.59;;;10.43;66.07
46598;BME280;32318;48.858;8.252;2023-03-12T19:12:17;99933.41;;;10.35;66.60
46598;BME280;32318;48.858;8.252;2023-03-12T19:20:18;99952.28;;;10.25;66.77
46598;BME280;32318;48.858;8.252;2023-03-12T19:28:18;99955.59;;;10.19;67.36
46598;BME280;32318;48.858;8.252;2023-03-12T19:36:19;99959.94;;;10.12;68.12
46598;BME280;32318;48.858;8.252;2023-03-12T19:44:19;99955.78;;;10.09;68.29
46598;BME280;32318;48.858;8.252;2023-03-12T19:52:19;99956.28;;;10.04;68.39
46598;BME280;32318;48.858;8.252;2023-03-12T20:00:20;99961.31;;;9.99;68.37
46598;BME280;32318;48.858;8.252;2023-03-12T20:08:21;99935.47;;;10.00;68.12
46598;BME280;32318;48.858;8.252;2023-03-12T20:16:21;99943.28;;;10.01;67.99
46598;BME280;32318;48.858;8.252;2023-03-12T20:24:22;99939.28;;;10.05;67.55
46598;BME280;32318;48.858;8.252;2023-03-12T20:32:23;99932.28;;;10.13;66.75
46598;BME280;32318;48.858;8.252;2023-03-12T20:40:24;99928.44;;;10.15;66.95
46598;BME280;32318;48.858;8.252;2023-03-12T20:48:24;99925.25;;;10.20;67.06
46598;BME280;32318;48.858;8.252;2023-03-12T20:56:27;99922.09;;;10.16;66.46
46598;BME280;32318;48.858;8.252;2023-03-12T21:04:27;99914.09;;;10.16;66.70
46598;BME280;32318;48.858;8.252;2023-03-12T21:12:28;99912.09;;;10.18;66.60
46598;BME280;32318;48.858;8.252;2023-03-12T21:20:28;99914.44;;;10.22;66.78
46598;BME280;32318;48.858;8.252;2023-03-12T21:28:28;99921.75;;;10.28;66.99
46598;BME280;32318;48.858;8.252;2023-03-12T21:36:30;99907.75;;;10.26;67.46
46598;BME280;32318;48.858;8.252;2023-03-12T21:44:30;99900.75;;;10.25;67.53
46598;BME280;32318;48.858;8.252;2023-03-12T21:52:33;99888.41;;;10.24;68.27
46598;BME280;32318;48.858;8.252;2023-03-12T22:00:38;99868.91;;;10.23;68.34
46598;BME280;32318;48.858;8.252;2023-03-12T22:08:38;99857.91;;;10.26;68.25
46598;BME280;32318;48.858;8.252;2023-03-12T22:16:39;99843.91;;;10.24;68.20
46598;BME280;32318;48.858;8.252;2023-03-12T22:24:40;99826.88;;;10.25;68.49
46598;BME280;32318;48.858;8.252;2023-03-12T22:32:40;99823.72;;;10.22;68.40
46598;BME280;32318;48.858;8.252;2023-03-12T22:40:41;99831.41;;;10.16;68.73
46598;BME280;32318;48.858;8.252;2023-03-12T22:48:42;99831.59;;;10.15;68.77
46598;BME280;32318;48.858;8.252;2023-03-12T22:56:46;99839.75;;;10.13;68.62
46598;BME280;32318;48.858;8.252;2023-03-12T23:04:47;99829.09;;;10.13;68.22
46598;BME280;32318;48.858;8.252;2023-03-12T23:12:47;99813.09;;;10.13;68.55
46598;BME280;32318;48.858;8.252;2023-03-12T23:20:56;99804.41;;;10.11;68.53
46598;BME280;32318;48.858;8.252;2023-03-12T23:28:57;99797.41;;;10.10;68.17
46598;BME280;32318;48.858;8.252;2023-03-12T23:36:58;99794.41;;;10.13;68.40
46598;BME280;32318;48.858;8.252;2023-03-12T23:45:23;99772.91;;;10.15;68.49
46598;BME280;32318;48.858;8.252;2023-03-12T23:53:23;99777.91;;;10.18;68.22
